sensor_id;sensor_type;location;lat;lon;timestamp;temperature;humidity
23769;DHT22;12064;50.890;5.424;2023-03-03T00:01:40;22.40;61.00
23769;DHT22;12064;50.890;5.424;2023-03-03T00:10:31;22.30;60.80
23769;DHT22;12064;50.890;5.424;2023-03-03T00:19:22;22.20;60.90
23769;DHT22;12064;50.890;5.424;2023-03-03T00:28:40;21.70;62.10
23769;DHT22;12064;50.890;5.424;2023-03-03T00:37:32;21.10;64.10
23769;DHT22;12064;50.890;5.424;2023-03-03T00:46:23;21.10;64.10
23769;DHT22;12064;50.890;5.424;2023-03-03T00:55:14;21.90;62.00
23769;DHT22;12064;50.890;5.424;2023-03-03T01:04:11;22.10;60.90
23769;DHT22;12064;50.890;5.424;2023-03-03T01:13:02;22.10;60.70
23769;DHT22;12064;50.890;5.424;2023-03-03T01:21:53;22.10;60.50
23769;DHT22;12064;50.890;5.424;2023-03-03T01:30:44;22.00;60.70
23769;DHT22;12064;50.890;5.424;2023-03-03T01:39:35;21.10;63.30
23769;DHT22;12064;50.890;5.424;2023-03-03T01:48:33;20.60;64.70
23769;DHT22;12064;50.890;5.424;2023-03-03T01:57:38;20.50;65.00
23769;DHT22;12064;50.890;5.424;2023-03-03T02:06:34;20.90;64.10
23769;DHT22;12064;50.890;5.424;2023-03-03T02:15:34;21.70;61.30
23769;DHT22;12064;50.890;5.424;2023-03-03T02:24:30;22.00;60.50
23769;DHT22;12064;50.890;5.424;2023-03-03T02:33:26;21.80;60.50
23769;DHT22;12064;50.890;5.424;2023-03-03T02:42:28;21.20;62.30
23769;DHT22;12064;50.890;5.424;2023-03-03T02:51:20;20.70;63.70
23769;DHT22;12064;50.890;5.424;2023-03-03T03:00:11;20.50;64.40
23769;DHT22;12064;50.890;5.424;2023-03-03T03:09:04;20.70;63.90
23769;DHT22;12064;50.890;5.424;2023-03-03T03:17:55;21.40;62.00
23769;DHT22;12064;50.890;5.424;2023-03-03T03:26:46;21.70;60.80
23769;DHT22;12064;50.890;5.424;2023-03-03T03:35:37;21.80;60.20
23769;DHT22;12064;50.890;5.424;2023-03-03T03:44:27;21.60;60.80
23769;DHT22;12064;50.890;5.424;2023-03-03T03:53:18;20.90;62.70
23769;DHT22;12064;50.890;5.424;2023-03-03T04:02:09;20.40;64.20
23769;DHT22;12064;50.890;5.424;2023-03-03T04:10:59;20.60;63.70
23769;DHT22;12064;50.890;5.424;2023-03-03T04:19:52;21.00;62.50
23769;DHT22;12064;50.890;5.424;2023-03-03T04:28:42;21.30;61.40
23769;DHT22;12064;50.890;5.424;2023-03-03T04:37:35;21.60;60.60
23769;DHT22;12064;50.890;5.424;2023-03-03T04:46:26;21.60;60.40
23769;DHT22;12064;50.890;5.424;2023-03-03T04:55:19;20.90;62.10
23769;DHT22;12064;50.890;5.424;2023-03-03T05:04:16;20.60;63.70
23769;DHT22;12064;50.890;5.424;2023-03-03T05:13:09;20.80;63.40
23769;DHT22;12064;50.890;5.424;2023-03-03T05:22:01;21.20;62.60
23769;DHT22;12064;50.890;5.424;2023-03-03T05:30:55;21.30;62.60
23769;DHT22;12064;50.890;5.424;2023-03-03T05:39:45;21.20;63.00
23769;DHT22;12064;50.890;5.424;2023-03-03T05:48:36;21.30;62.70
23769;DHT22;12064;50.890;5.424;2023-03-03T05:57:27;21.30;62.80
23769;DHT22;12064;50.890;5.424;2023-03-03T06:06:20;21.20;63.10
23769;DHT22;12064;50.890;5.424;2023-03-03T06:15:11;21.00;63.70
23769;DHT22;12064;50.890;5.424;2023-03-03T06:24:05;21.00;64.10
23769;DHT22;12064;50.890;5.424;2023-03-03T06:32:56;21.00;64.40
23769;DHT22;12064;50.890;5.424;2023-03-03T06:41:49;21.20;64.00
23769;DHT22;12064;50.890;5.424;2023-03-03T06:50:40;21.60;64.30
23769;DHT22;12064;50.890;5.424;2023-03-03T06:59:32;22.60;63.60
23769;DHT22;12064;50.890;5.424;2023-03-03T07:08:24;22.80;60.90
23769;DHT22;12064;50.890;5.424;2023-03-03T07:17:18;23.00;61.70
23769;DHT22;12064;50.890;5.424;2023-03-03T07:26:12;23.00;61.00
23769;DHT22;12064;50.890;5.424;2023-03-03T07:44:20;21.40;64.50
23769;DHT22;12064;50.890;5.424;2023-03-03T07:53:29;21.50;64.10
23769;DHT22;12064;50.890;5.424;2023-03-03T08:11:18;21.10;65.00
23769;DHT22;12064;50.890;5.424;2023-03-03T08:29:24;20.70;65.70
23769;DHT22;12064;50.890;5.424;2023-03-03T08:38:19;20.60;66.00
23769;DHT22;12064;50.890;5.424;2023-03-03T08:47:10;20.30;66.30
23769;DHT22;12064;50.890;5.424;2023-03-03T08:56:01;20.30;66.30
23769;DHT22;12064;50.890;5.424;2023-03-03T09:04:52;20.30;65.90
23769;DHT22;12064;50.890;5.424;2023-03-03T09:13:45;20.60;65.10
23769;DHT22;12064;50.890;5.424;2023-03-03T09:22:44;21.20;63.20
23769;DHT22;12064;50.890;5.424;2023-03-03T10:18:01;19.90;66.00
23769;DHT22;12064;50.890;5.424;2023-03-03T10:54:05;20.80;62.20
23769;DHT22;12064;50.890;5.424;2023-03-03T11:03:42;20.30;64.10
23769;DHT22;12064;50.890;5.424;2023-03-03T11:12:45;20.00;65.10
23769;DHT22;12064;50.890;5.424;2023-03-03T11:22:03;19.90;65.50
23769;DHT22;12064;50.890;5.424;2023-03-03T11:31:15;20.20;64.60
23769;DHT22;12064;50.890;5.424;2023-03-03T11:40:52;20.60;63.30
23769;DHT22;12064;50.890;5.424;2023-03-03T12:07:48;22.30;59.80
23769;DHT22;12064;50.890;5.424;2023-03-03T12:17:00;22.50;59.20
23769;DHT22;12064;50.890;5.424;2023-03-03T12:26:10;22.40;60.50
23769;DHT22;12064;50.890;5.424;2023-03-03T12:35:18;22.70;59.60
23769;DHT22;12064;50.890;5.424;2023-03-03T12:44:23;22.70;59.50
23769;DHT22;12064;50.890;5.424;2023-03-03T12:53:30;22.60;59.40
23769;DHT22;12064;50.890;5.424;2023-03-03T13:21:21;22.10;59.70
23769;DHT22;12064;50.890;5.424;2023-03-03T13:39:27;20.90;62.50
23769;DHT22;12064;50.890;5.424;2023-03-03T13:48:44;20.30;64.40
23769;DHT22;12064;50.890;5.424;2023-03-03T14:06:56;20.20;64.50
23769;DHT22;12064;50.890;5.424;2023-03-03T14:15:54;20.90;63.30
23769;DHT22;12064;50.890;5.424;2023-03-03T14:51:46;21.30;60.90
23769;DHT22;12064;50.890;5.424;2023-03-03T15:00:37;20.40;62.90
23769;DHT22;12064;50.890;5.424;2023-03-03T15:09:38;20.10;64.30
23769;DHT22;12064;50.890;5.424;2023-03-03T16:04:44;20.90;61.60
23769;DHT22;12064;50.890;5.424;2023-03-03T16:32:47;21.10;61.00
23769;DHT22;12064;50.890;5.424;2023-03-03T16:42:24;21.10;60.80
23769;DHT22;12064;50.890;5.424;2023-03-03T16:51:44;20.90;61.30
23769;DHT22;12064;50.890;5.424;2023-03-03T17:00:51;20.90;61.20
23769;DHT22;12064;50.890;5.424;2023-03-03T17:46:32;20.80;61.70
23769;DHT22;12064;50.890;5.424;2023-03-03T18:32:20;19.90;65.10
23769;DHT22;12064;50.890;5.424;2023-03-03T18:41:21;19.80;65.50
23769;DHT22;12064;50.890;5.424;2023-03-03T18:50:32;19.80;65.60
23769;DHT22;12064;50.890;5.424;2023-03-03T19:08:51;20.00;65.20
23769;DHT22;12064;50.890;5.424;2023-03-03T19:17:48;19.90;65.30
23769;DHT22;12064;50.890;5.424;2023-03-03T19:54:45;22.00;63.10
23769;DHT22;12064;50.890;5.424;2023-03-03T20:03:51;22.30;62.70
23769;DHT22;12064;50.890;5.424;2023-03-03T20:22:52;22.60;62.50
23769;DHT22;12064;50.890;5.424;2023-03-03T20:32:15;22.80;62.50
23769;DHT22;12064;50.890;5.424;2023-03-03T20:41:39;22.90;62.00
23769;DHT22;12064;50.890;5.424;2023-03-03T21:01:14;23.00;62.60
23769;DHT22;12064;50.890;5.424;2023-03-03T21:09:45;22.90;63.10
23769;DHT22;12064;50.890;5.424;2023-03-03T21:18:37;23.10;63.10
23769;DHT22;12064;50.890;5.424;2023-03-03T21:27:34;23.10;62.80
23769;DHT22;12064;50.890;5.424;2023-03-03T21:45:24;23.40;62.10
23769;DHT22;12064;50.890;5.424;2023-03-03T21:54:22;23.30;62.50
23769;DHT22;12064;50.890;5.424;2023-03-03T22:03:14;23.40;62.20
23769;DHT22;12064;50.890;5.424;2023-03-03T22:12:06;23.50;61.80
23769;DHT22;12064;50.890;5.424;2023-03-03T22:20:57;23.50;61.70
23769;DHT22;12064;50.890;5.424;2023-03-03T22:29:48;23.30;61.80
23769;DHT22;12064;50.890;5.424;2023-03-03T22:38:38;23.20;62.10
23769;DHT22;12064;50.890;5.424;2023-03-03T22:47:29;23.20;61.70
23769;DHT22;12064;50.890;5.424;2023-03-03T22:56:22;22.90;62.00
23769;DHT22;12064;50.890;5.424;2023-03-03T23:05:13;22.60;62.10
23769;DHT22;12064;50.890;5.424;2023-03-03T23:14:07;22.60;62.00
23769;DHT22;12064;50.890;5.424;2023-03-03T23:22:58;22.40;62.30
23769;DHT22;12064;50.890;5.424;2023-03-03T23:31:50;22.20;62.30
23769;DHT22;12064;50.890;5.424;2023-03-03T23:40:41;22.10;62.40
23769;DHT22;12064;50.890;5.424;2023-03-03T23:49:32;21.30;63.90
23769;DHT22;12064;50.890;5.424;2023-03-03T23:58:23;20.40;67.00
